首页
METAR-TAF:

METAR-TAF

机场 :

喬爾盧, 土耳其

纬度: 41-08N, 经度: 027-55E, 海拔: 173米

当前天气观测

该预报发布于22分钟前的23:20 UTC
静风
温度 4°C
湿度 100%
气压 1013 hPa
能見度: 0800
碎片雾

METAR: LTBU 092320Z 00000KT 0800 R04/0600D R22/1000N BCFG NSC 04/04 Q1013

时间: 02:42 (23:42 UTC)

预报

该预报发布于1小时和2分钟前的22:40 UTC
预报有效从10日的 00点(UTC)到 10日的 24点(UTC)
风速2节,风向多变
能見度: 4000
轻雾
短暂存在
从 10日的 00点(UTC)到 10日的 03点(UTC)
能見度: 0600
短暂存在
从 10日的 03点(UTC)到 10日的 05点(UTC)
能見度: 0400
层高于300英尺
成为
从 10日的 05点(UTC)到 10日的 08点(UTC)
能见度10公里或以上
1500米以下无云,无积雨云
成为
从 10日的 16点(UTC)到 10日的 20点(UTC)
风速12节,风向北转东北

TAF: LTBU 092240Z 1000/1024 VRB02KT 4000 BR NSC TEMPO 1000/1003 0600 FG TEMPO 1003/1005 0400 FG VV003 BECMG 1005/1008 CAVOK BECMG 1016/1020 02012KT

超过4000个机场的气象观测和天气预报(METAR&TAF报告)。

可查询的气象台以黄色和红色小点在地图上表示。

将鼠标移到小点上方,可查看气象台名称。

然后点击查看天气观测和预报。

如需切换地图:点击带黑十字的绿色按钮放大地图;点击带横线的绿色按钮缩小地图;或者点击绿色箭头查看邻近地区的地图。


METAR-TAF: